Time;durP1;ratioP1;P1;durP2;ratioP2;P2;SDS_P1;SDS_P2;PMS_P1;PMS_P2;Temp;Humidity;BMP_temperature;BMP_pressure;BME280_temperature;BME280_humidity;BME280_pressure;Samples;Min_cycle;Max_cycle;Signal;HPM_P1;HPM_P2
2023/05/26 00:00:03;;;;;;;26.60;5.83;;;8.40;1.00;;;;;;5012890;28;20483;-59
2023/05/26 00:02:29;;;;;;;27.70;5.97;;;8.30;1.00;;;;;;5004828;28;20193;-58
2023/05/26 00:04:58;;;;;;;31.63;7.67;;;8.30;50.60;;;;;;5007563;28;20489;-59
2023/05/26 00:07:24;;;;;;;27.63;6.40;;;8.20;63.10;;;;;;5010628;28;20474;-58
2023/05/26 00:09:50;;;;;;;32.13;6.90;;;8.20;99.90;;;;;;5004118;28;20845;-58
2023/05/26 00:12:16;;;;;;;39.27;6.10;;;8.10;99.90;;;;;;5007682;28;20441;-57
2023/05/26 00:14:42;;;;;;;34.30;6.80;;;8.10;99.90;;;;;;5005996;28;20444;-59
2023/05/26 00:17:08;;;;;;;32.13;7.00;;;8.00;99.90;;;;;;5013006;28;20437;-57
2023/05/26 00:19:35;;;;;;;24.60;6.03;;;8.10;99.90;;;;;;5013218;28;20187;-59
2023/05/26 00:22:02;;;;;;;31.53;6.30;;;8.00;99.90;;;;;;5003547;28;21326;-59
2023/05/26 00:24:28;;;;;;;21.07;5.63;;;7.90;99.90;;;;;;5003709;28;20444;-58
2023/05/26 00:26:53;;;;;;;33.90;6.20;;;7.90;99.90;;;;;;5003541;28;20996;-59
2023/05/26 00:29:19;;;;;;;22.00;6.03;;;7.90;99.90;;;;;;5006646;28;20216;-58
2023/05/26 00:31:45;;;;;;;29.60;6.93;;;7.90;1.00;;;;;;5010673;28;20200;-59
2023/05/26 00:34:11;;;;;;;23.50;6.33;;;7.90;99.90;;;;;;5011471;28;20500;-58
2023/05/26 00:36:37;;;;;;;31.30;5.97;;;7.90;99.90;;;;;;5005221;28;20259;-58
2023/05/26 00:39:02;;;;;;;21.83;6.10;;;7.80;99.90;;;;;;5003422;28;20723;-58
2023/05/26 00:41:28;;;;;;;30.47;6.77;;;7.80;99.90;;;;;;5005752;28;20440;-59
2023/05/26 00:43:54;;;;;;;28.13;5.77;;;7.80;99.90;;;;;;5007519;28;20246;-60
2023/05/26 00:46:20;;;;;;;34.53;5.80;;;7.90;99.90;;;;;;5010929;28;20714;-56
2023/05/26 00:48:45;;;;;;;33.03;6.40;;;7.80;99.90;;;;;;5002407;28;20216;-59
2023/05/26 00:51:12;;;;;;;24.67;6.67;;;7.70;99.90;;;;;;5003143;28;20280;-58
2023/05/26 00:53:42;;;;;;;33.37;6.37;;;7.60;99.90;;;;;;5006575;28;20193;-58
2023/05/26 00:56:09;;;;;;;23.20;5.20;;;7.50;99.90;;;;;;4995277;28;20543;-59
2023/05/26 00:58:35;;;;;;;41.70;6.50;;;7.50;99.90;;;;;;4983799;28;20487;-58
2023/05/26 01:01:01;;;;;;;31.80;7.23;;;7.40;1.00;;;;;;4986544;28;20472;-58
2023/05/26 01:03:27;;;;;;;27.43;6.43;;;7.40;1.00;;;;;;4988860;28;20227;-58
2023/05/26 01:05:54;;;;;;;31.47;6.70;;;7.40;1.00;;;;;;4986565;28;20729;-58
2023/05/26 01:08:19;;;;;;;35.70;6.00;;;7.40;1.00;;;;;;4991071;28;20496;-58
2023/05/26 01:10:45;;;;;;;38.43;6.03;;;7.30;1.00;;;;;;4981979;28;20446;-58
2023/05/26 01:13:22;;;;;;;25.77;5.60;;;7.30;1.00;;;;;;4983448;28;20189;-58
2023/05/26 01:15:57;;;;;;;18.70;4.80;;;7.30;1.00;;;;;;4985733;28;20633;-58
2023/05/26 01:18:41;;;;;;;28.23;6.23;;;7.30;1.00;;;;;;4982526;28;20471;-58
2023/05/26 01:21:13;;;;;;;35.77;6.20;;;7.20;1.00;;;;;;4977198;28;20492;-58
2023/05/26 01:24:05;;;;;;;30.07;5.30;;;7.20;1.00;;;;;;4988057;28;20463;-59
2023/05/26 01:26:55;;;;;;;27.10;5.70;;;7.10;1.00;;;;;;4955466;28;23105;-57
2023/05/26 01:29:24;;;;;;;29.97;5.70;;;7.10;1.00;;;;;;4986101;28;22654;-58
2023/05/26 01:31:51;;;;;;;25.63;5.80;;;7.00;1.00;;;;;;4982601;28;22165;-58
2023/05/26 01:34:16;;;;;;;23.80;5.33;;;6.90;66.00;;;;;;4987465;28;20447;-59
2023/05/26 01:36:42;;;;;;;24.87;5.50;;;7.00;99.90;;;;;;4981779;28;22043;-59
2023/05/26 01:39:09;;;;;;;32.60;5.77;;;6.90;99.90;;;;;;4981878;28;20700;-57
2023/05/26 01:41:50;;;;;;;38.13;6.63;;;6.90;99.90;;;;;;4987302;28;20203;-58
2023/05/26 01:44:31;;;;;;;29.87;6.57;;;6.90;81.50;;;;;;4984143;28;20492;-57
2023/05/26 01:46:57;;;;;;;25.80;5.90;;;6.90;1.00;;;;;;4987376;28;20472;-58
2023/05/26 01:49:28;;;;;;;26.90;6.03;;;6.90;13.40;;;;;;4984329;28;20519;-58
2023/05/26 01:52:03;;;;;;;34.07;6.70;;;6.90;1.00;;;;;;4983916;28;20185;-58
2023/05/26 01:54:40;;;;;;;28.23;6.20;;;6.80;1.00;;;;;;4984539;28;20989;-58
2023/05/26 01:57:07;;;;;;;22.10;5.50;;;6.80;92.90;;;;;;4996575;28;20490;-58
2023/05/26 01:59:33;;;;;;;40.47;6.20;;;6.70;99.90;;;;;;5003427;28;20526;-58
2023/05/26 02:01:59;;;;;;;36.63;5.93;;;6.60;99.90;;;;;;5005968;28;20443;-57
2023/05/26 02:04:24;;;;;;;26.53;6.17;;;6.60;99.90;;;;;;5009377;28;20951;-58
2023/05/26 02:06:52;;;;;;;31.13;6.17;;;6.60;99.90;;;;;;5007822;28;20664;-58
2023/05/26 02:09:18;;;;;;;22.30;5.40;;;6.60;99.90;;;;;;4999655;28;20235;-58
2023/05/26 02:11:43;;;;;;;32.37;6.13;;;6.60;99.90;;;;;;5002406;28;20452;-58
2023/05/26 02:14:09;;;;;;;28.93;6.03;;;6.50;77.40;;;;;;4999020;28;20184;-58
2023/05/26 02:16:35;;;;;;;33.13;6.40;;;6.60;99.90;;;;;;5005666;28;20183;-58
2023/05/26 02:19:01;;;;;;;25.47;6.07;;;6.50;79.30;;;;;;5000269;28;20636;-58
2023/05/26 02:21:28;;;;;;;32.90;5.90;;;6.60;99.90;;;;;;5003822;28;20805;-57
2023/05/26 02:23:54;;;;;;;39.03;6.10;;;6.60;12.90;;;;;;5013637;28;20436;-58
2023/05/26 02:26:21;;;;;;;32.33;5.67;;;6.50;1.00;;;;;;5006258;28;20448;-58
2023/05/26 02:28:49;;;;;;;28.40;5.43;;;6.50;1.00;;;;;;5004790;28;20564;-58
2023/05/26 02:31:15;;;;;;;27.47;6.30;;;6.50;1.00;;;;;;5000120;28;20504;-58
2023/05/26 02:33:41;;;;;;;34.70;6.30;;;6.40;1.00;;;;;;5001714;28;20941;-57
2023/05/26 02:36:07;;;;;;;27.73;5.93;;;6.40;1.00;;;;;;5002068;28;20203;-57
2023/05/26 02:38:33;;;;;;;25.73;5.33;;;6.30;91.10;;;;;;5001469;28;20439;-59
2023/05/26 02:40:58;;;;;;;28.60;5.70;;;6.30;99.90;;;;;;5003101;28;20439;-57
2023/05/26 02:43:24;;;;;;;28.97;5.40;;;6.30;99.90;;;;;;5005630;28;20647;-57
2023/05/26 02:45:50;;;;;;;27.37;5.77;;;6.30;99.90;;;;;;5002857;28;20581;-58
2023/05/26 02:48:16;;;;;;;26.40;5.23;;;6.30;99.90;;;;;;4999949;28;20228;-58
2023/05/26 02:50:42;;;;;;;35.83;6.13;;;6.30;99.90;;;;;;5004862;28;20196;-58
2023/05/26 02:53:07;;;;;;;25.07;5.40;;;6.20;99.90;;;;;;5000022;28;20465;-58
2023/05/26 02:55:33;;;;;;;34.63;6.47;;;6.20;99.90;;;;;;5005055;28;20243;-56
2023/05/26 02:58:00;;;;;;;24.67;6.80;;;6.20;99.90;;;;;;5003178;28;20185;-58
2023/05/26 03:00:26;;;;;;;22.73;6.10;;;6.10;99.90;;;;;;5013240;28;20192;-57
2023/05/26 03:02:51;;;;;;;24.23;5.70;;;6.20;1.00;;;;;;5012135;28;20447;-58
2023/05/26 03:05:17;;;;;;;32.97;6.57;;;6.20;1.00;;;;;;5011522;28;20330;-58
2023/05/26 03:07:43;;;;;;;30.70;6.10;;;6.20;99.90;;;;;;5008677;28;20631;-57
2023/05/26 03:10:09;;;;;;;28.60;5.70;;;6.20;1.00;;;;;;5006293;28;20231;-59
2023/05/26 03:12:34;;;;;;;38.03;6.73;;;6.10;1.00;;;;;;5004203;28;20219;-58
2023/05/26 03:15:00;;;;;;;24.13;5.20;;;6.10;1.00;;;;;;5006497;28;20465;-58
2023/05/26 03:17:27;;;;;;;41.30;6.80;;;6.10;4.90;;;;;;5004586;28;20180;-58
2023/05/26 03:19:53;;;;;;;35.60;6.90;;;6.10;1.00;;;;;;5005408;28;20192;-57
2023/05/26 03:22:18;;;;;;;30.37;6.77;;;6.10;1.00;;;;;;5013298;28;20435;-57
2023/05/26 03:24:44;;;;;;;43.20;6.93;;;6.00;1.00;;;;;;5003796;28;20702;-57
2023/05/26 03:27:10;;;;;;;29.10;6.10;;;6.10;99.90;;;;;;5010603;28;20203;-57
2023/05/26 03:29:35;;;;;;;25.53;6.03;;;6.10;99.90;;;;;;5012422;28;20230;-58
2023/05/26 03:32:01;;;;;;;35.80;7.33;;;6.00;99.90;;;;;;5004161;28;20541;-57
2023/05/26 03:34:26;;;;;;;35.47;6.90;;;6.10;99.90;;;;;;5005663;28;20184;-59
2023/05/26 03:36:54;;;;;;;26.40;5.63;;;6.00;99.90;;;;;;5007753;28;20192;-57
2023/05/26 03:39:21;;;;;;;31.63;5.87;;;6.00;99.90;;;;;;5007896;28;20275;-56
2023/05/26 03:41:48;;;;;;;31.20;6.70;;;6.00;1.00;;;;;;5005344;28;20443;-57
2023/05/26 03:44:18;;;;;;;28.50;5.63;;;6.10;1.00;;;;;;5006536;28;20930;-56
2023/05/26 03:46:47;;;;;;;37.80;6.77;;;6.10;1.00;;;;;;5008204;28;20432;-56
2023/05/26 03:49:12;;;;;;;38.17;7.50;;;6.10;1.00;;;;;;5004598;28;20561;-57
2023/05/26 03:51:38;;;;;;;34.93;6.87;;;6.20;1.00;;;;;;5008651;28;20890;-56
2023/05/26 03:54:04;;;;;;;32.50;5.83;;;6.20;99.90;;;;;;5004931;28;20184;-56
2023/05/26 03:56:30;;;;;;;23.40;6.40;;;6.20;99.90;;;;;;5002896;28;20253;-57
2023/05/26 03:58:55;;;;;;;24.53;5.60;;;6.10;99.90;;;;;;5002579;28;20436;-56
2023/05/26 04:01:22;;;;;;;34.90;6.73;;;6.20;1.00;;;;;;5009098;28;20192;-57
2023/05/26 04:03:48;;;;;;;26.73;6.60;;;6.20;99.90;;;;;;5007273;28;20202;-57
2023/05/26 04:06:13;;;;;;;23.33;5.70;;;6.10;1.00;;;;;;5002641;28;20774;-58
2023/05/26 04:08:39;;;;;;;37.07;6.13;;;6.20;1.00;;;;;;5004469;28;20486;-56
2023/05/26 04:11:05;;;;;;;36.70;7.20;;;6.20;1.00;;;;;;5001116;28;20193;-58
2023/05/26 04:13:32;;;;;;;34.80;6.63;;;6.40;1.00;;;;;;5006922;28;20187;-56
2023/05/26 04:15:57;;;;;;;36.10;6.83;;;6.40;99.90;;;;;;5005627;28;20242;-57
2023/05/26 04:18:23;;;;;;;28.63;6.30;;;6.50;99.90;;;;;;5005507;28;20453;-58
2023/05/26 04:20:49;;;;;;;39.13;6.43;;;6.50;1.00;;;;;;5005148;28;20187;-57
2023/05/26 04:23:15;;;;;;;34.43;7.40;;;6.60;1.00;;;;;;5002855;28;20501;-57
2023/05/26 04:25:40;;;;;;;26.90;6.37;;;6.70;1.00;;;;;;5008248;28;20228;-57
2023/05/26 04:28:07;;;;;;;20.97;5.97;;;6.70;99.90;;;;;;5001233;28;20436;-57
2023/05/26 04:30:38;;;;;;;25.17;5.90;;;6.80;99.90;;;;;;5004418;28;20192;-55
2023/05/26 04:33:05;;;;;;;27.70;7.23;;;6.90;99.90;;;;;;5010018;28;20430;-56
2023/05/26 04:35:32;;;;;;;37.43;6.80;;;7.00;1.00;;;;;;5004378;28;20443;-57
2023/05/26 04:37:58;;;;;;;30.40;6.33;;;7.00;1.00;;;;;;5004588;28;20495;-57
2023/05/26 04:40:24;;;;;;;38.67;6.77;;;7.10;1.00;;;;;;5003298;28;20440;-57
2023/05/26 04:42:49;;;;;;;34.27;6.53;;;7.20;1.00;;;;;;5005615;28;20458;-57
2023/05/26 04:45:15;;;;;;;38.57;6.20;;;7.30;99.90;;;;;;5003540;28;20188;-57
2023/05/26 04:47:42;;;;;;;31.60;6.33;;;7.50;99.90;;;;;;5007108;28;20184;-57
2023/05/26 04:50:12;;;;;;;32.13;6.63;;;7.60;1.00;;;;;;5000302;28;20213;-56
2023/05/26 04:52:39;;;;;;;27.47;6.43;;;7.80;1.00;;;;;;5001148;28;20446;-57
2023/05/26 04:55:05;;;;;;;33.27;7.33;;;7.90;1.00;;;;;;5002599;28;20443;-57
2023/05/26 04:57:31;;;;;;;33.90;6.77;;;8.00;1.00;;;;;;5008882;28;20435;-57
2023/05/26 04:59:57;;;;;;;31.33;6.50;;;8.10;99.90;;;;;;5003660;28;20487;-57
2023/05/26 05:02:22;;;;;;;26.97;5.97;;;8.20;99.90;;;;;;5001878;28;20216;-58
2023/05/26 05:04:48;;;;;;;25.00;5.83;;;8.20;99.90;;;;;;5004442;28;20188;-58
2023/05/26 05:07:14;;;;;;;30.00;7.00;;;8.40;99.90;;;;;;5000690;28;20189;-59
2023/05/26 05:09:40;;;;;;;33.63;6.60;;;8.50;99.90;;;;;;5003501;28;20230;-59
2023/05/26 05:12:06;;;;;;;37.17;7.10;;;8.60;99.90;;;;;;5002977;28;20523;-59
2023/05/26 05:14:32;;;;;;;32.83;5.90;;;8.70;99.90;;;;;;5002550;28;21852;-59
2023/05/26 05:16:58;;;;;;;36.13;5.13;;;8.80;99.90;;;;;;5005014;28;20192;-59
2023/05/26 05:19:24;;;;;;;28.83;6.47;;;8.90;99.10;;;;;;5003662;28;20435;-59
2023/05/26 05:21:50;;;;;;;20.67;5.00;;;9.00;64.30;;;;;;5002169;28;20185;-57
2023/05/26 05:24:15;;;;;;;21.73;5.47;;;9.10;38.00;;;;;;5000585;28;20247;-59
2023/05/26 05:26:41;;;;;;;38.03;7.40;;;9.30;20.60;;;;;;5001563;28;20490;-60
2023/05/26 05:29:07;;;;;;;25.73;5.43;;;9.40;1.00;;;;;;4999632;28;20223;-58
2023/05/26 05:31:33;;;;;;;33.93;6.67;;;9.50;1.00;;;;;;5004047;28;20286;-59
2023/05/26 05:33:58;;;;;;;28.43;5.37;;;9.60;1.00;;;;;;5001296;28;20527;-59
2023/05/26 05:36:24;;;;;;;32.03;6.27;;;9.80;1.00;;;;;;5007758;28;20184;-59
2023/05/26 05:38:50;;;;;;;28.90;6.10;;;9.80;1.00;;;;;;5004192;28;20204;-59
2023/05/26 05:41:16;;;;;;;34.10;7.17;;;9.90;1.00;;;;;;5002850;28;20208;-59
2023/05/26 05:43:41;;;;;;;24.17;5.90;;;9.90;1.00;;;;;;5001505;28;20184;-59
2023/05/26 05:46:07;;;;;;;28.53;6.10;;;10.00;1.00;;;;;;5006367;28;20250;-59
2023/05/26 05:48:32;;;;;;;29.87;6.20;;;10.10;1.00;;;;;;5006090;28;20212;-57
2023/05/26 05:50:59;;;;;;;26.60;5.60;;;10.30;1.00;;;;;;5004007;28;20657;-57
2023/05/26 05:53:25;;;;;;;21.17;6.20;;;10.50;1.00;;;;;;5008788;28;20199;-59
2023/05/26 05:55:50;;;;;;;28.77;5.43;;;10.70;1.00;;;;;;5001865;28;20835;-59
2023/05/26 05:58:16;;;;;;;33.23;6.03;;;10.80;1.00;;;;;;5003820;28;20193;-58
2023/05/26 06:00:41;;;;;;;20.43;5.70;;;10.90;1.00;;;;;;5001248;28;20190;-58
2023/05/26 06:03:07;;;;;;;39.67;6.00;;;11.10;1.00;;;;;;4999795;28;20192;-55
2023/05/26 06:05:33;;;;;;;36.00;5.60;;;11.40;1.00;;;;;;5002231;28;20202;-56
2023/05/26 06:07:58;;;;;;;23.83;5.60;;;11.50;1.00;;;;;;4997541;28;20191;-57
2023/05/26 06:10:24;;;;;;;26.50;6.80;;;11.70;1.00;;;;;;5002653;28;20189;-59
2023/05/26 06:12:49;;;;;;;19.43;5.30;;;11.80;1.00;;;;;;5002891;28;20194;-59
2023/05/26 06:15:17;;;;;;;25.83;6.07;;;11.90;1.00;;;;;;5002100;28;20574;-60
2023/05/26 06:17:43;;;;;;;21.97;5.07;;;12.10;1.00;;;;;;5002043;28;20180;-57
2023/05/26 06:20:09;;;;;;;30.33;5.10;;;12.20;1.00;;;;;;5000398;28;20435;-61
2023/05/26 06:22:36;;;;;;;25.57;5.93;;;12.50;1.00;;;;;;5001828;28;21654;-57
2023/05/26 06:25:03;;;;;;;29.40;6.15;;;12.60;1.00;;;;;;4989524;28;20434;-54
2023/05/26 06:27:29;;;;;;;30.37;5.90;;;12.90;1.00;;;;;;5004094;28;20530;-57
2023/05/26 06:29:54;;;;;;;31.53;5.63;;;12.90;1.00;;;;;;5000411;28;20470;-57
2023/05/26 06:32:20;;;;;;;27.03;5.30;;;13.00;1.00;;;;;;5007529;28;20196;-57
2023/05/26 06:34:46;;;;;;;29.93;6.17;;;13.20;1.00;;;;;;5007125;28;20518;-57
2023/05/26 06:37:12;;;;;;;21.63;5.30;;;13.30;1.00;;;;;;5009295;28;20783;-57
2023/05/26 06:39:37;;;;;;;22.60;5.67;;;13.40;1.00;;;;;;5004041;28;20576;-60
2023/05/26 06:42:03;;;;;;;20.23;4.63;;;13.50;1.00;;;;;;5013611;28;20243;-56
2023/05/26 06:44:29;;;;;;;16.60;4.70;;;13.70;1.00;;;;;;5004799;28;20279;-57
2023/05/26 06:46:55;;;;;;;31.47;5.70;;;13.70;1.00;;;;;;5009700;28;20193;-57
2023/05/26 06:49:20;;;;;;;25.83;5.20;;;13.80;1.00;;;;;;5006581;28;20975;-60
2023/05/26 06:51:46;;;;;;;23.37;4.90;;;13.90;1.00;;;;;;5004703;28;20951;-60
2023/05/26 06:54:12;;;;;;;30.20;6.00;;;14.00;1.00;;;;;;5005541;28;20216;-58
2023/05/26 06:56:37;;;;;;;18.30;4.63;;;14.10;1.00;;;;;;5004457;28;20232;-60
2023/05/26 06:59:03;;;;;;;22.50;5.30;;;14.20;1.00;;;;;;5005143;28;20189;-57
2023/05/26 07:01:28;;;;;;;19.20;4.77;;;14.10;1.00;;;;;;5008278;28;20200;-59
2023/05/26 07:03:54;;;;;;;18.93;4.60;;;14.20;1.00;;;;;;5007148;28;20680;-59
2023/05/26 07:06:19;;;;;;;28.33;5.40;;;14.30;1.00;;;;;;5006567;28;20197;-60
2023/05/26 07:08:45;;;;;;;21.73;5.10;;;14.50;1.00;;;;;;5004766;28;20228;-58
2023/05/26 07:11:11;;;;;;;23.07;4.93;;;14.70;1.00;;;;;;5009205;28;20220;-59
2023/05/26 07:13:36;;;;;;;21.40;5.20;;;14.90;1.00;;;;;;5002093;28;20468;-59
2023/05/26 07:16:02;;;;;;;27.03;5.10;;;14.70;1.00;;;;;;5008953;28;20525;-59
2023/05/26 07:18:27;;;;;;;25.30;5.60;;;14.90;1.00;;;;;;5004945;28;20180;-59
2023/05/26 07:20:53;;;;;;;21.13;5.20;;;15.10;1.00;;;;;;5009419;28;20190;-59
2023/05/26 07:23:18;;;;;;;17.85;4.90;;;15.30;1.00;;;;;;5009209;28;20523;-59
2023/05/26 07:25:44;;;;;;;17.57;4.60;;;15.50;1.00;;;;;;5004576;28;20207;-59
2023/05/26 07:28:09;;;;;;;21.20;4.60;;;15.80;1.00;;;;;;5003506;28;20181;-59
2023/05/26 07:30:35;;;;;;;16.00;4.13;;;16.20;1.00;;;;;;5006761;28;20189;-56
2023/05/26 07:33:01;;;;;;;22.13;5.33;;;16.40;1.00;;;;;;5004989;28;20281;-59
2023/05/26 07:35:26;;;;;;;18.57;7.00;;;16.30;1.00;;;;;;5003924;28;20206;-60
2023/05/26 07:37:52;;;;;;;28.70;5.10;;;16.30;1.00;;;;;;5005132;28;20652;-59
2023/05/26 07:40:18;;;;;;;30.43;5.80;;;16.10;1.00;;;;;;5007820;28;20272;-60
2023/05/26 07:42:44;;;;;;;23.93;5.43;;;16.30;1.00;;;;;;5006280;28;20555;-60
2023/05/26 07:45:10;;;;;;;15.30;4.57;;;16.60;1.00;;;;;;5002635;28;20191;-57
2023/05/26 07:47:35;;;;;;;15.40;4.67;;;16.70;1.00;;;;;;5006937;28;20456;-59
2023/05/26 07:50:02;;;;;;;23.27;4.83;;;16.40;1.00;;;;;;5001927;28;20223;-58
2023/05/26 07:52:28;;;;;;;14.33;3.93;;;16.30;1.00;;;;;;5002667;28;20190;-60
2023/05/26 07:54:54;;;;;;;30.53;5.40;;;16.50;1.00;;;;;;5001796;28;20533;-57
2023/05/26 07:57:20;;;;;;;16.80;4.63;;;16.80;1.00;;;;;;5013806;28;20238;-59
2023/05/26 07:59:45;;;;;;;21.63;4.50;;;17.00;1.00;;;;;;5003376;28;20431;-60
2023/05/26 08:02:11;;;;;;;24.73;4.70;;;17.40;1.00;;;;;;5004705;28;20237;-58
2023/05/26 08:04:37;;;;;;;17.73;4.50;;;17.90;1.00;;;;;;5004918;28;20226;-60
2023/05/26 08:07:03;;;;;;;13.53;4.00;;;18.00;1.00;;;;;;5006004;28;20219;-59
2023/05/26 08:09:29;;;;;;;16.90;4.03;;;18.40;1.00;;;;;;5007096;28;20561;-63
2023/05/26 08:11:54;;;;;;;16.03;4.30;;;18.60;1.00;;;;;;5003850;28;21056;-60
2023/05/26 08:14:22;;;;;;;20.07;4.20;;;18.60;1.00;;;;;;5008154;28;20796;-59
2023/05/26 08:16:48;;;;;;;15.37;4.23;;;19.10;1.00;;;;;;5006539;28;20192;-57
2023/05/26 08:19:13;;;;;;;16.63;4.90;;;19.30;1.00;;;;;;5006595;28;20430;-59
2023/05/26 08:21:39;;;;;;;14.00;4.20;;;19.50;1.00;;;;;;5007704;28;20179;-57
2023/05/26 08:24:05;;;;;;;19.30;4.67;;;19.00;1.00;;;;;;5007115;28;20273;-58
2023/05/26 08:26:30;;;;;;;15.10;4.20;;;19.10;1.00;;;;;;5005730;28;20200;-57
2023/05/26 08:28:56;;;;;;;16.47;4.30;;;19.20;1.00;;;;;;5010324;28;20214;-57
2023/05/26 08:31:21;;;;;;;11.40;4.20;;;19.60;1.00;;;;;;5003455;28;20561;-61
2023/05/26 08:33:47;;;;;;;14.53;4.40;;;19.60;1.00;;;;;;5003976;28;20194;-54
2023/05/26 08:36:12;;;;;;;14.07;4.30;;;19.70;1.00;;;;;;5002911;28;20425;-60
2023/05/26 08:38:38;;;;;;;21.20;4.67;;;19.50;1.00;;;;;;5005710;28;20283;-60
2023/05/26 08:41:05;;;;;;;13.63;4.60;;;19.10;1.00;;;;;;5008729;28;20184;-61
2023/05/26 08:43:55;;;;;;;18.77;5.07;;;18.70;1.00;;;;;;5005322;28;20191;-61
2023/05/26 08:46:22;;;;;;;18.87;4.83;;;18.70;1.00;;;;;;5006840;28;20788;-61
2023/05/26 08:48:48;;;;;;;17.17;5.07;;;18.70;1.00;;;;;;5005413;28;20989;-61
2023/05/26 08:51:14;;;;;;;17.67;4.40;;;18.90;1.00;;;;;;5006658;28;20434;-60
2023/05/26 08:53:40;;;;;;;12.70;4.30;;;19.30;1.00;;;;;;5005788;28;21270;-60
2023/05/26 08:56:07;;;;;;;17.90;4.60;;;19.90;1.00;;;;;;5007626;28;20231;-60
2023/05/26 08:58:34;;;;;;;12.43;3.90;;;20.10;1.00;;;;;;5003974;28;20852;-59
2023/05/26 09:01:01;;;;;;;19.60;4.67;;;19.80;99.90;;;;;;5003273;28;20435;-61
2023/05/26 09:03:28;;;;;;;18.80;4.47;;;20.00;1.00;;;;;;5004540;28;20979;-59
2023/05/26 09:05:53;;;;;;;15.27;4.07;;;20.00;99.90;;;;;;5002251;28;20446;-60
2023/05/26 09:08:19;;;;;;;16.20;4.00;;;20.00;99.90;;;;;;5004476;28;20470;-60
2023/05/26 09:10:45;;;;;;;22.87;5.33;;;20.20;99.90;;;;;;5006704;28;20190;-60
2023/05/26 09:13:14;;;;;;;20.63;4.60;;;20.30;99.90;;;;;;5006764;28;20194;-58
2023/05/26 09:15:40;;;;;;;13.17;3.93;;;20.00;99.90;;;;;;5005035;28;20285;-60
2023/05/26 09:18:11;;;;;;;20.23;4.50;;;19.70;99.90;;;;;;5000096;28;20438;-61
2023/05/26 09:20:41;;;;;;;15.40;5.23;;;19.70;99.90;;;;;;5005227;28;20514;-59
2023/05/26 09:23:07;;;;;;;21.03;4.40;;;19.70;99.90;;;;;;5002008;28;20441;-61
2023/05/26 09:25:40;;;;;;;19.97;4.50;;;19.90;99.90;;;;;;5003420;28;20446;-61
2023/05/26 09:28:08;;;;;;;19.83;4.80;;;20.20;99.90;;;;;;5006611;28;20197;-60
2023/05/26 09:30:46;;;;;;;12.70;4.37;;;20.40;99.90;;;;;;5006877;28;20936;-61
2023/05/26 09:33:14;;;;;;;15.80;4.90;;;20.20;99.90;;;;;;5005022;28;20524;-60
2023/05/26 09:35:42;;;;;;;13.90;4.30;;;19.50;99.90;;;;;;5003463;28;20447;-60
2023/05/26 09:38:09;;;;;;;26.07;9.63;;;19.10;99.90;;;;;;5003824;28;20454;-60
2023/05/26 09:40:43;;;;;;;20.60;5.53;;;19.00;99.90;;;;;;5006542;28;20442;-60
2023/05/26 09:43:09;;;;;;;15.80;5.30;;;19.00;99.90;;;;;;5004734;28;20783;-60
2023/05/26 09:45:36;;;;;;;16.00;5.10;;;19.50;99.90;;;;;;5004813;28;20474;-61
2023/05/26 09:48:07;;;;;;;23.07;4.67;;;19.80;99.90;;;;;;5007991;28;20560;-60
2023/05/26 09:50:37;;;;;;;22.60;5.23;;;19.70;99.90;;;;;;5003248;28;20450;-59
2023/05/26 09:53:06;;;;;;;11.03;4.70;;;20.00;99.90;;;;;;5002001;28;20445;-58
2023/05/26 09:55:32;;;;;;;15.83;4.37;;;20.10;99.90;;;;;;5005499;28;20486;-58
2023/05/26 09:58:06;;;;;;;15.83;4.67;;;20.40;99.90;;;;;;4999208;28;20949;-57
2023/05/26 10:00:38;;;;;;;17.53;4.53;;;20.70;99.90;;;;;;5001549;28;20533;-59
2023/05/26 10:03:06;;;;;;;12.33;5.10;;;20.70;99.90;;;;;;5003563;28;20450;-58
2023/05/26 10:05:45;;;;;;;13.77;4.50;;;21.10;99.90;;;;;;5001363;28;20449;-59
2023/05/26 10:08:11;;;;;;;17.00;5.13;;;21.30;99.90;;;;;;5003857;28;20450;-59
2023/05/26 10:10:38;;;;;;;16.87;4.50;;;20.90;99.90;;;;;;5006891;28;20429;-60
2023/05/26 10:13:06;;;;;;;17.77;4.73;;;20.70;99.90;;;;;;5002556;28;20441;-59
2023/05/26 10:15:32;;;;;;;12.07;4.53;;;20.60;99.90;;;;;;5001528;28;20773;-61
2023/05/26 10:18:00;;;;;;;16.87;4.87;;;20.50;99.90;;;;;;5000565;28;20443;-59
2023/05/26 10:20:26;;;;;;;11.97;4.80;;;20.80;99.90;;;;;;5000610;28;20442;-59
2023/05/26 10:23:14;;;;;;;23.97;5.07;;;21.30;99.90;;;;;;5009819;28;20848;-59
2023/05/26 10:26:12;;;;;;;13.70;4.90;;;21.50;99.90;;;;;;5001402;28;20207;-57
2023/05/26 10:28:46;;;;;;;12.60;5.00;;;21.70;99.90;;;;;;5001796;28;20500;-59
2023/05/26 10:31:26;;;;;;;14.93;5.00;;;22.10;99.90;;;;;;5002986;28;20448;-56
2023/05/26 10:33:52;;;;;;;17.92;5.68;;;22.00;99.90;;;;;;5001157;28;20907;-60
2023/05/26 10:36:18;;;;;;;10.67;4.60;;;22.70;99.90;;;;;;5000205;28;20213;-58
2023/05/26 10:38:47;;;;;;;12.63;4.80;;;23.10;99.90;;;;;;5005801;28;20512;-60
2023/05/26 10:41:31;;;;;;;16.03;5.87;;;22.50;99.90;;;;;;5001835;28;20439;-60
2023/05/26 10:43:57;;;;;;;18.77;5.73;;;21.50;99.90;;;;;;5004104;28;20476;-61
2023/05/26 10:46:35;;;;;;;21.43;6.00;;;21.30;99.90;;;;;;5000565;28;20571;-59
2023/05/26 10:49:00;;;;;;;13.47;5.03;;;21.60;99.90;;;;;;5000912;28;20532;-60
2023/05/26 10:51:32;;;;;;;14.60;5.63;;;22.30;99.90;;;;;;5004640;28;20457;-59
2023/05/26 10:53:58;;;;;;;15.40;4.67;;;22.40;99.90;;;;;;5002676;28;20188;-58
2023/05/26 10:56:48;;;;;;;15.40;6.20;;;21.80;99.90;;;;;;5001370;28;20556;-58
2023/05/26 10:59:28;;;;;;;17.00;5.75;;;20.40;99.90;;;;;;5001329;28;20476;-59
2023/05/26 11:01:54;;;;;;;13.60;5.83;;;20.40;99.90;;;;;;5000397;28;20248;-59
2023/05/26 11:04:21;;;;;;;17.40;7.00;;;20.90;99.90;;;;;;5011647;28;20493;-60
2023/05/26 11:06:56;;;;;;;15.37;6.10;;;21.40;99.90;;;;;;5001032;28;20207;-59
2023/05/26 11:09:23;;;;;;;16.73;5.70;;;21.50;99.90;;;;;;5002178;28;20863;-59
2023/05/26 11:11:52;;;;;;;17.90;5.30;;;21.20;99.90;;;;;;5000568;28;20494;-59
2023/05/26 11:14:29;;;;;;;14.77;5.80;;;21.30;99.90;;;;;;5002213;28;20445;-56
2023/05/26 11:17:00;;;;;;;17.07;6.20;;;21.80;99.90;;;;;;5002635;28;20446;-59
2023/05/26 11:19:33;;;;;;;17.35;6.22;;;22.20;99.90;;;;;;5011573;28;20430;-60
2023/05/26 11:22:01;;;;;;;21.63;7.27;;;21.80;99.90;;;;;;5007805;28;20534;-58
2023/05/26 11:24:26;;;;;;;15.30;6.27;;;22.10;99.90;;;;;;5004781;28;20453;-58
2023/05/26 11:26:52;;;;;;;18.17;6.67;;;22.30;99.90;;;;;;5009632;28;20433;-58
2023/05/26 11:29:24;;;;;;;20.43;6.67;;;21.50;99.90;;;;;;5012244;28;20696;-59
2023/05/26 11:31:51;;;;;;;19.93;6.10;;;20.90;99.90;;;;;;5006065;28;20211;-59
2023/05/26 11:34:16;;;;;;;21.70;7.20;;;20.50;99.90;;;;;;5016175;28;20457;-58
2023/05/26 11:36:51;;;;;;;16.33;6.10;;;20.40;99.90;;;;;;5020766;28;20434;-57
2023/05/26 11:39:17;;;;;;;16.93;6.23;;;20.20;99.90;;;;;;5020334;28;20431;-60
2023/05/26 11:41:43;;;;;;;18.93;6.87;;;20.00;99.90;;;;;;5017695;28;20815;-60
2023/05/26 11:44:12;;;;;;;21.73;6.65;;;19.60;99.90;;;;;;5016351;28;20902;-61
2023/05/26 11:46:38;;;;;;;21.43;6.07;;;19.10;99.90;;;;;;5022465;28;20222;-60
2023/05/26 11:49:10;;;;;;;17.33;6.60;;;18.70;99.90;;;;;;4996322;28;20840;-60
2023/05/26 11:51:36;;;;;;;23.57;6.83;;;18.50;99.90;;;;;;5033290;28;20450;-61
2023/05/26 11:54:08;;;;;;;20.63;5.90;;;18.40;99.90;;;;;;5027905;28;20457;-59
2023/05/26 11:56:36;;;;;;;23.03;6.73;;;18.50;99.90;;;;;;5003517;28;20524;-60
2023/05/26 11:59:03;;;;;;;12.93;5.07;;;18.80;99.90;;;;;;5001868;28;20489;-62
2023/05/26 12:01:31;;;;;;;15.27;5.10;;;19.10;99.90;;;;;;5004302;28;20445;-60
2023/05/26 12:04:00;;;;;;;23.20;6.50;;;19.40;99.90;;;;;;5001811;28;20446;-60
2023/05/26 12:06:31;;;;;;;12.70;5.20;;;19.30;99.90;;;;;;4970177;28;21291;-55
2023/05/26 12:09:08;;;;;;;18.87;5.37;;;19.20;99.90;;;;;;4967695;28;20966;-59
2023/05/26 12:11:37;;;;;;;16.40;6.00;;;19.10;99.90;;;;;;5006013;28;20466;-56
2023/05/26 12:14:10;;;;;;;17.30;5.10;;;18.90;99.90;;;;;;5002792;28;20840;-59
2023/05/26 12:16:39;;;;;;;15.17;4.90;;;18.70;99.90;;;;;;5004392;28;20449;-60
2023/05/26 12:19:08;;;;;;;25.53;5.27;;;18.60;99.90;;;;;;5012049;28;20849;-61
2023/05/26 12:21:45;;;;;;;14.93;4.93;;;18.70;99.90;;;;;;5001103;28;20437;-60
2023/05/26 12:24:11;;;;;;;14.43;5.20;;;18.70;99.90;;;;;;5008166;28;20474;-57
2023/05/26 12:26:37;;;;;;;17.87;5.40;;;18.60;99.90;;;;;;5004672;28;20440;-61
2023/05/26 12:29:10;;;;;;;16.13;5.97;;;18.60;99.90;;;;;;5011500;28;20485;-60
2023/05/26 12:31:56;;;;;;;14.10;5.00;;;18.50;99.90;;;;;;5018112;28;20238;-60
2023/05/26 12:34:25;;;;;;;15.10;4.70;;;18.50;99.90;;;;;;5020938;28;20440;-58
2023/05/26 12:36:51;;;;;;;17.08;5.15;;;19.10;99.90;;;;;;5026152;28;20489;-60
2023/05/26 12:39:18;;;;;;;19.13;5.20;;;19.70;99.90;;;;;;5016314;28;20190;-61
2023/05/26 12:41:45;;;;;;;20.23;6.10;;;20.10;99.90;;;;;;5013113;28;20913;-56
2023/05/26 12:44:12;;;;;;;13.30;4.67;;;19.90;99.90;;;;;;5017844;28;20486;-59
2023/05/26 12:46:42;;;;;;;25.67;6.20;;;19.20;99.90;;;;;;5022857;28;20437;-58